Terminal Aerodrome Forecast
Issued by NWS Sterling, VA

Current Version | Previous Version | Graphics & Text | Print | Product List | Glossary On
Versions: 1 2 3 4 5 6 7 8 9 10 11 12 13 14 15
664
FTUS41 KLWX 130530
TAFMRB
TAF
KMRB 130530Z 1306/1406 30017G27KT P6SM BKN040
     FM131400 29018G28KT P6SM FEW250
     FM131900 28014G23KT P6SM SCT070
     FM132000 27011G19KT P6SM BKN060
     FM132200 24007KT P6SM BKN045
     FM140300 VRB03KT P6SM OVC060=

USA.gov is the U.S. government's official web portal to all federal, state and local government web resources and services.